Time;durP1;ratioP1;P1;durP2;ratioP2;P2;SDS_P1;SDS_P2;PMS_P1;PMS_P2;Temp;Humidity;BMP_temperature;BMP_pressure;BME280_temperature;BME280_humidity;BME280_pressure;Samples;Min_cycle;Max_cycle;Signal;HPM_P1;HPM_P2
2023/01/18 00:03:19;;;;;;;64.60;36.40;;;;;;;1.92;82.36;97746.62;181001;1259;43772;-80
2023/01/18 00:07:21;;;;;;;64.20;37.00;;;;;;;1.84;82.43;97743.09;181081;1259;43903;-80
2023/01/18 00:11:24;;;;;;;62.30;33.90;;;;;;;1.79;82.33;97743.86;180981;1259;58182;-79
2023/01/18 00:15:27;;;;;;;64.10;35.60;;;;;;;1.78;82.70;97730.83;180988;1259;44150;-79
2023/01/18 00:19:32;;;;;;;67.90;37.40;;;;;;;1.83;82.97;97732.55;181034;1259;44063;-79
2023/01/18 00:23:35;;;;;;;69.80;38.80;;;;;;;1.88;83.04;97722.48;181077;1259;44094;-79
2023/01/18 00:27:43;;;;;;;67.50;34.40;;;;;;;1.97;82.87;97712.25;180961;1259;43768;-79
2023/01/18 00:31:45;;;;;;;77.40;37.00;;;;;;;2.02;82.93;97698.21;180879;1258;58682;-80
2023/01/18 00:36:00;;;;;;;60.50;35.00;;;;;;;1.97;83.66;97685.34;180988;1258;45732;-80
2023/01/18 00:54:48;;;;;;;46.80;31.80;;;;;;;2.18;84.63;97673.55;177647;1279;579615;-58
2023/01/18 00:58:52;;;;;;;40.00;29.20;;;;;;;2.33;83.95;97667.71;180940;1252;232392;-58
2023/01/18 01:02:57;;;;;;;54.40;35.70;;;;;;;2.41;83.60;97678.20;181271;1251;43781;-58
2023/01/18 01:07:03;;;;;;;45.30;32.00;;;;;;;2.43;83.15;97684.97;180954;1253;44767;-58
2023/01/18 01:11:12;;;;;;;65.20;36.40;;;;;;;2.37;83.64;97693.75;180805;1254;46120;-58
2023/01/18 01:28:19;;;;;;;52.60;35.60;;;;;;;2.60;82.83;97685.58;181087;1254;44903;-60
2023/01/18 01:32:22;;;;;;;66.40;36.30;;;;;;;2.69;82.45;97686.30;180786;1254;44907;-60
2023/01/18 01:36:56;;;;;;;57.00;33.60;;;;;;;2.74;81.73;97685.17;181011;1253;43511;-60
2023/01/18 01:41:06;;;;;;;51.60;35.80;;;;;;;2.65;80.72;97681.46;180888;1254;58732;-60
2023/01/18 01:46:01;;;;;;;51.80;33.80;;;;;;;2.56;80.86;97686.06;180346;1259;45862;-60
2023/01/18 01:50:37;;;;;;;57.40;32.30;;;;;;;2.46;81.44;97694.85;180328;1259;45973;-60
2023/01/18 01:55:00;;;;;;;56.90;35.10;;;;;;;2.12;81.68;97695.96;180438;1259;43681;-60
2023/01/18 01:59:05;;;;;;;66.20;37.90;;;;;;;2.04;82.49;97686.68;180310;1259;43606;-60
2023/01/18 02:03:11;;;;;;;57.70;35.50;;;;;;;2.08;82.52;97683.84;180762;1254;59225;-60
2023/01/18 02:07:41;;;;;;;57.40;37.70;;;;;;;2.12;82.38;97682.64;180885;1254;44884;-60
2023/01/18 02:11:44;;;;;;;68.80;38.50;;;;;;;2.18;82.37;97682.34;180827;1253;46000;-60
2023/01/18 02:15:53;;;;;;;62.10;36.30;;;;;;;2.18;82.71;97679.86;180959;1254;43909;-60
2023/01/18 02:26:05;;;;;;;56.60;32.80;;;;;;;1.89;85.51;97683.64;179988;1266;59136;-60
2023/01/18 02:30:42;;;;;;;49.70;32.80;;;;;;;1.83;86.63;97686.24;179848;1261;45956;-60
2023/01/18 02:34:53;;;;;;;61.70;33.70;;;;;;;1.82;86.82;97684.20;179494;1268;45876;-60
2023/01/18 02:39:05;;;;;;;51.80;33.80;;;;;;;1.84;86.80;97678.44;179354;1268;44225;-60
2023/01/18 02:47:35;;;;;;;47.00;30.90;;;;;;;1.91;87.13;97680.66;178959;1268;57489;-60
2023/01/18 02:52:00;;;;;;;47.80;30.20;;;;;;;1.93;87.44;97684.52;179329;1270;45949;-60
2023/01/18 02:56:27;;;;;;;44.50;31.10;;;;;;;1.90;87.30;97686.34;179418;1269;46027;-60
2023/01/18 03:00:33;;;;;;;55.50;32.60;;;;;;;1.99;87.88;97683.92;179536;1262;44971;-60
2023/01/18 03:04:43;;;;;;;52.20;32.70;;;;;;;2.17;87.65;97675.02;179864;1262;43590;-60
2023/01/18 03:08:53;;;;;;;61.70;31.20;;;;;;;2.30;86.91;97674.25;179725;1262;58292;-60
2023/01/18 03:13:04;;;;;;;50.60;28.50;;;;;;;2.36;86.62;97672.98;180801;1254;44634;-60
2023/01/18 03:17:28;;;;;;;44.90;29.60;;;;;;;2.37;86.78;97674.52;180775;1254;45930;-60
2023/01/18 03:21:48;;;;;;;51.40;29.40;;;;;;;2.43;86.81;97670.26;181065;1253;44759;-58
2023/01/18 03:25:55;;;;;;;57.10;32.10;;;;;;;2.54;86.43;97675.06;180822;1254;43890;-60
2023/01/18 03:35:06;;;;;;;51.00;29.90;;;;;;;2.59;85.55;97675.73;180969;1254;45894;-59
2023/01/18 03:39:19;;;;;;;46.90;26.50;;;;;;;2.66;85.64;97669.26;180865;1254;43579;-60
2023/01/18 03:43:25;;;;;;;49.20;29.50;;;;;;;2.73;85.15;97661.65;180604;1254;45110;-59
2023/01/18 03:47:30;;;;;;;54.20;30.60;;;;;;;2.78;85.17;97653.37;180598;1254;45475;-59
2023/01/18 03:52:06;;;;;;;57.80;35.40;;;;;;;2.77;84.58;97650.45;180922;1254;58601;-60
2023/01/18 03:56:27;;;;;;;48.30;31.00;;;;;;;2.75;84.61;97653.61;181044;1254;44210;-60
2023/01/18 04:00:33;;;;;;;52.30;32.50;;;;;;;2.77;84.66;97659.73;181149;1254;43505;-60
2023/01/18 04:09:24;;;;;;;52.90;30.60;;;;;;;2.82;85.10;97637.04;150609;1257;73693;-60
2023/01/18 04:13:42;;;;;;;71.50;43.00;;;;;;;2.90;85.55;97631.96;175086;1259;76776;-80
2023/01/18 04:17:48;;;;;;;70.10;40.00;;;;;;;2.98;85.31;97639.22;177153;1262;46051;-80
2023/01/18 04:21:51;;;;;;;55.50;36.80;;;;;;;2.98;85.39;97647.29;176690;1260;46511;-80
2023/01/18 04:25:54;;;;;;;73.90;37.40;;;;;;;2.94;85.69;97643.95;177684;1260;46050;-80
2023/01/18 04:29:57;;;;;;;48.50;31.00;;;;;;;2.90;85.65;97637.55;177927;1261;46092;-80
2023/01/18 04:34:00;;;;;;;41.30;27.60;;;;;;;2.93;85.62;97646.19;176497;1260;57984;-80
2023/01/18 04:38:03;;;;;;;46.20;31.30;;;;;;;2.98;85.77;97648.73;180134;1260;44111;-81
2023/01/18 04:42:06;;;;;;;48.30;29.50;;;;;;;3.05;85.69;97656.54;177610;1261;45978;-80
2023/01/18 04:46:09;;;;;;;42.60;27.60;;;;;;;3.07;85.54;97670.27;176644;1260;46003;-80
2023/01/18 04:50:12;;;;;;;39.40;25.60;;;;;;;3.08;85.24;97680.05;175710;1262;46553;-79
2023/01/18 04:54:17;;;;;;;38.00;27.10;;;;;;;3.07;85.32;97696.37;176217;1260;59251;-80
2023/01/18 04:58:20;;;;;;;48.60;27.60;;;;;;;2.91;86.59;97703.80;176072;1260;46431;-80
2023/01/18 05:02:23;;;;;;;50.50;29.00;;;;;;;2.84;86.68;97700.88;177085;1260;46235;-80
2023/01/18 05:06:26;;;;;;;45.60;30.10;;;;;;;2.89;87.08;97704.52;176013;1261;46111;-79
2023/01/18 05:10:29;;;;;;;46.70;29.10;;;;;;;2.91;87.04;97699.38;175714;1261;46080;-80
2023/01/18 05:14:32;;;;;;;42.60;27.30;;;;;;;2.92;87.25;97698.80;176404;1259;58877;-79
2023/01/18 05:18:35;;;;;;;45.10;30.00;;;;;;;2.96;87.59;97698.30;176316;1261;46519;-81
2023/01/18 05:22:38;;;;;;;51.40;29.80;;;;;;;3.00;87.82;97702.44;175952;1260;46096;-79
2023/01/18 05:26:41;;;;;;;46.80;32.90;;;;;;;3.04;88.22;97688.46;176521;1261;46124;-79
2023/01/18 05:30:43;;;;;;;50.80;33.10;;;;;;;3.03;88.51;97678.08;176704;1260;45975;-80
2023/01/18 05:34:46;;;;;;;40.10;27.50;;;;;;;2.96;89.14;97675.83;176774;1261;57842;-80
2023/01/18 05:38:49;;;;;;;44.00;28.40;;;;;;;2.90;88.89;97678.52;175906;1260;46066;-80
2023/01/18 05:42:52;;;;;;;44.60;30.60;;;;;;;2.84;89.14;97677.50;175985;1261;46074;-80
2023/01/18 05:46:55;;;;;;;45.40;27.80;;;;;;;2.84;89.54;97674.46;175557;1262;46073;-79
2023/01/18 05:50:58;;;;;;;56.60;33.90;;;;;;;2.89;89.34;97666.55;175638;1260;46080;-80
2023/01/18 05:55:01;;;;;;;47.60;33.60;;;;;;;2.91;89.57;97668.97;175852;1264;59679;-80
2023/01/18 05:59:04;;;;;;;53.70;35.50;;;;;;;2.93;89.77;97666.80;176391;1262;46184;-79
2023/01/18 06:03:07;;;;;;;42.90;27.00;;;;;;;2.95;90.33;97670.33;175580;1260;46072;-80
2023/01/18 06:07:13;;;;;;;41.40;27.90;;;;;;;2.97;90.85;97662.11;175702;1260;46080;-80
2023/01/18 06:11:16;;;;;;;40.90;28.50;;;;;;;3.01;90.77;97663.51;176416;1263;45985;-80
2023/01/18 06:15:19;;;;;;;43.60;31.30;;;;;;;3.06;90.83;97664.60;176360;1260;57978;-80
2023/01/18 06:19:22;;;;;;;47.60;30.00;;;;;;;3.13;90.52;97672.85;175689;1263;46093;-81
2023/01/18 06:23:26;;;;;;;45.30;26.00;;;;;;;3.14;90.00;97676.85;176156;1263;46092;-81
2023/01/18 06:27:29;;;;;;;41.90;28.20;;;;;;;3.12;90.22;97684.58;176438;1259;46073;-81
2023/01/18 06:59:07;;;;;;;38.70;25.40;;;;;;;3.44;89.55;97681.04;155317;1264;79404;-80
2023/01/18 07:03:10;;;;;;;38.00;23.80;;;;;;;3.44;89.31;97679.98;180329;1264;43972;-80
2023/01/18 07:07:14;;;;;;;34.40;22.40;;;;;;;3.43;89.36;97687.10;180628;1264;44092;-81
2023/01/18 07:11:18;;;;;;;36.20;23.70;;;;;;;3.43;89.28;97692.52;180283;1265;44107;-81
2023/01/18 07:15:21;;;;;;;50.60;33.30;;;;;;;3.51;89.63;97697.23;180462;1265;43822;-81
2023/01/18 07:19:24;;;;;;;39.30;22.50;;;;;;;3.57;89.48;97704.02;180428;1264;59847;-81
2023/01/18 07:23:28;;;;;;;27.50;20.30;;;;;;;3.53;89.56;97706.52;180577;1264;44065;-80
2023/01/18 07:27:32;;;;;;;33.60;22.60;;;;;;;3.31;90.14;97709.79;180407;1264;44254;-81
2023/01/18 07:31:37;;;;;;;29.10;20.00;;;;;;;3.18;91.22;97709.73;180563;1264;44066;-81
2023/01/18 07:35:39;;;;;;;34.00;21.90;;;;;;;3.16;91.95;97705.89;180506;1265;44090;-81
2023/01/18 07:39:42;;;;;;;30.40;20.70;;;;;;;3.10;92.55;97713.96;180431;1264;59386;-81
2023/01/18 07:43:46;;;;;;;35.00;23.30;;;;;;;2.91;93.73;97722.71;180567;1264;43891;-81
2023/01/18 07:47:49;;;;;;;36.20;22.80;;;;;;;2.73;94.87;97725.38;180444;1265;44275;-81
2023/01/18 07:51:51;;;;;;;42.60;25.50;;;;;;;2.66;95.43;97745.91;180595;1264;43860;-81
2023/01/18 07:56:01;;;;;;;34.20;21.00;;;;;;;2.66;95.58;97759.37;180520;1264;43850;-81
2023/01/18 08:00:06;;;;;;;32.50;20.40;;;;;;;2.68;95.60;97761.16;180374;1264;60566;-81
2023/01/18 08:04:09;;;;;;;36.50;23.10;;;;;;;2.64;96.35;97765.95;180562;1264;43992;-81
2023/01/18 08:08:15;;;;;;;40.20;25.90;;;;;;;2.62;96.80;97772.40;180530;1264;43758;-81
2023/01/18 08:12:18;;;;;;;46.20;28.30;;;;;;;2.62;96.96;97769.70;180375;1264;43946;-81
2023/01/18 08:16:21;;;;;;;40.20;26.40;;;;;;;2.58;97.08;97766.40;180551;1264;43794;-81
2023/01/18 08:20:24;;;;;;;33.30;23.60;;;;;;;2.53;97.81;97770.55;180406;1264;57789;-80
2023/01/18 08:24:27;;;;;;;45.70;25.90;;;;;;;2.56;97.99;97771.11;180576;1264;43879;-80
2023/01/18 08:28:33;;;;;;;40.20;22.30;;;;;;;2.58;98.41;97776.55;180350;1265;43703;-80
2023/01/18 08:32:36;;;;;;;34.10;24.50;;;;;;;2.66;98.87;97777.77;180299;1264;43802;-80
2023/01/18 08:36:39;;;;;;;39.30;23.60;;;;;;;2.80;98.75;97780.77;180554;1265;44098;-80
2023/01/18 08:40:42;;;;;;;44.60;23.60;;;;;;;2.95;98.53;97773.45;180286;1264;59490;-81
2023/01/18 08:44:47;;;;;;;30.00;21.80;;;;;;;3.03;98.37;97776.22;180603;1264;43729;-81
2023/01/18 08:48:52;;;;;;;30.80;21.60;;;;;;;3.07;98.11;97775.69;180575;1264;43885;-81
2023/01/18 08:52:55;;;;;;;39.20;23.50;;;;;;;3.02;98.61;97781.41;180572;1264;43858;-80
2023/01/18 08:57:00;;;;;;;37.30;24.40;;;;;;;2.91;99.74;97786.45;180570;1265;43986;-80
2023/01/18 09:01:05;;;;;;;37.60;22.20;;;;;;;2.84;99.97;97789.66;180570;1265;58242;-80
2023/01/18 09:05:09;;;;;;;32.90;21.80;;;;;;;2.72;100.00;97785.48;180311;1265;43812;-80
2023/01/18 09:09:12;;;;;;;33.40;20.80;;;;;;;2.72;100.00;97783.60;180574;1264;43861;-80
2023/01/18 09:13:15;;;;;;;31.90;21.30;;;;;;;2.73;100.00;97780.65;180415;1265;44259;-80
2023/01/18 09:17:20;;;;;;;30.60;20.70;;;;;;;2.79;100.00;97781.34;180558;1265;43837;-80
2023/01/18 09:21:23;;;;;;;38.90;23.20;;;;;;;2.89;100.00;97780.13;180345;1265;58673;-80
2023/01/18 09:25:26;;;;;;;31.50;22.60;;;;;;;2.98;100.00;97787.91;180534;1265;43830;-80
2023/01/18 09:29:30;;;;;;;43.80;28.00;;;;;;;3.03;100.00;97790.05;180388;1264;43926;-80
2023/01/18 09:33:34;;;;;;;38.80;27.10;;;;;;;3.09;100.00;97786.60;180366;1265;43752;-80
2023/01/18 09:37:39;;;;;;;36.20;26.10;;;;;;;3.13;100.00;97786.77;180562;1264;43855;-80
2023/01/18 09:41:48;;;;;;;36.80;26.00;;;;;;;3.21;100.00;97798.41;180542;1264;58315;-80
2023/01/18 09:45:52;;;;;;;43.10;27.00;;;;;;;3.31;100.00;97802.45;180372;1265;44143;-80
2023/01/18 09:50:01;;;;;;;37.80;26.40;;;;;;;3.35;100.00;97806.11;180325;1269;43790;-80
2023/01/18 09:54:10;;;;;;;45.80;29.40;;;;;;;3.41;99.91;97810.66;180374;1265;43905;-80
2023/01/18 09:58:30;;;;;;;38.20;26.20;;;;;;;3.42;99.71;97812.25;180572;1264;43819;-79
2023/01/18 10:02:38;;;;;;;41.80;27.70;;;;;;;3.47;99.32;97811.51;180517;1265;58513;-80
2023/01/18 10:06:59;;;;;;;41.50;24.90;;;;;;;3.51;99.38;97813.23;180355;1265;43954;-80
2023/01/18 10:11:11;;;;;;;36.90;25.70;;;;;;;3.55;99.01;97815.67;180355;1265;44130;-80
2023/01/18 10:15:25;;;;;;;41.30;28.30;;;;;;;3.63;98.84;97816.77;180530;1265;44063;-80
2023/01/18 10:19:30;;;;;;;45.70;30.90;;;;;;;3.66;98.25;97817.65;180613;1265;44049;-80
2023/01/18 10:23:43;;;;;;;44.50;24.20;;;;;;;3.66;98.03;97812.90;180427;1265;59227;-80
2023/01/18 10:28:02;;;;;;;45.50;28.40;;;;;;;3.65;98.01;97807.23;180616;1265;43900;-80
2023/01/18 10:32:13;;;;;;;47.10;32.10;;;;;;;3.63;98.24;97806.93;180605;1264;43875;-80
2023/01/18 10:36:19;;;;;;;44.60;32.70;;;;;;;3.65;98.45;97808.64;180628;1265;43803;-80
2023/01/18 10:40:22;;;;;;;44.40;31.90;;;;;;;3.69;98.47;97808.04;180589;1264;43815;-79
2023/01/18 10:44:25;;;;;;;54.80;34.00;;;;;;;3.71;98.58;97814.52;180457;1265;58525;-80
2023/01/18 10:48:29;;;;;;;49.50;33.00;;;;;;;3.74;98.38;97818.36;180570;1265;43841;-80
2023/01/18 10:52:32;;;;;;;46.50;29.20;;;;;;;3.78;98.29;97820.42;180554;1265;43933;-80
2023/01/18 10:56:36;;;;;;;42.40;29.80;;;;;;;3.80;98.22;97822.88;180366;1265;43758;-80
2023/01/18 11:00:39;;;;;;;42.60;27.30;;;;;;;3.83;98.03;97830.42;180365;1265;43827;-80
2023/01/18 11:04:42;;;;;;;38.50;26.70;;;;;;;3.89;97.76;97832.95;180371;1265;57561;-80
2023/01/18 11:08:47;;;;;;;42.40;27.20;;;;;;;3.95;97.85;97834.83;180440;1265;44279;-80
2023/01/18 11:12:51;;;;;;;43.30;28.60;;;;;;;3.99;97.88;97835.27;180391;1269;43752;-80
2023/01/18 11:17:09;;;;;;;39.10;28.10;;;;;;;4.04;97.98;97835.34;180329;1265;43941;-80
2023/01/18 11:21:14;;;;;;;38.90;27.70;;;;;;;4.13;97.53;97837.02;180504;1265;44041;-80
2023/01/18 11:25:17;;;;;;;35.70;24.50;;;;;;;4.18;96.86;97841.27;180346;1264;59105;-80
2023/01/18 11:29:23;;;;;;;31.40;23.70;;;;;;;4.24;96.64;97834.89;180629;1264;43833;-80
2023/01/18 11:33:30;;;;;;;32.30;23.30;;;;;;;4.33;96.57;97834.79;180360;1265;43855;-80
2023/01/18 11:37:35;;;;;;;32.80;22.80;;;;;;;4.42;96.69;97833.36;180539;1264;43869;-80
2023/01/18 11:41:38;;;;;;;33.50;23.20;;;;;;;4.50;96.34;97837.89;180386;1264;44449;-80
2023/01/18 11:45:58;;;;;;;35.20;23.30;;;;;;;4.63;96.35;97836.48;180321;1265;58123;-81
2023/01/18 11:50:15;;;;;;;42.20;26.30;;;;;;;4.68;95.43;97842.48;180368;1267;43848;-80
2023/01/18 11:54:45;;;;;;;33.90;24.30;;;;;;;4.65;95.00;97845.09;180537;1265;44157;-80
2023/01/18 11:58:48;;;;;;;38.60;28.00;;;;;;;4.62;95.10;97843.06;180236;1265;44094;-80
2023/01/18 12:03:04;;;;;;;36.40;24.10;;;;;;;4.67;95.68;97852.83;180548;1265;44148;-81
2023/01/18 12:07:20;;;;;;;38.30;24.20;;;;;;;4.74;95.36;97866.14;180539;1265;59560;-81
2023/01/18 12:11:32;;;;;;;30.00;23.40;;;;;;;4.76;95.32;97875.64;180542;1265;43777;-81
2023/01/18 12:15:52;;;;;;;33.50;26.10;;;;;;;4.81;95.25;97877.80;180417;1265;43772;-80
2023/01/18 12:20:19;;;;;;;42.40;25.90;;;;;;;4.86;95.30;97887.83;180580;1264;43957;-80
2023/01/18 12:24:52;;;;;;;38.30;22.90;;;;;;;4.91;95.58;97901.25;180632;1265;43994;-81
2023/01/18 12:29:09;;;;;;;33.80;22.50;;;;;;;4.86;94.29;97906.64;180538;1267;60299;-80
2023/01/18 12:33:38;;;;;;;;;;;;;;;4.85;94.24;97913.20;180329;1265;44035;-80
2023/01/18 12:38:08;;;;;;;29.60;23.00;;;;;;;4.90;93.94;97919.21;180519;1265;43734;-80
2023/01/18 12:42:39;;;;;;;35.50;25.10;;;;;;;4.89;94.06;97921.43;180291;1265;43907;-81
2023/01/18 12:46:45;;;;;;;33.30;24.20;;;;;;;4.91;94.12;97931.25;179034;1273;44243;-81
2023/01/18 12:50:49;;;;;;;38.90;25.10;;;;;;;4.90;93.73;97937.48;179027;1273;59712;-81
2023/01/18 12:54:56;;;;;;;34.00;22.00;;;;;;;4.85;94.06;97937.83;179095;1273;44156;-81
2023/01/18 12:59:07;;;;;;;31.90;22.70;;;;;;;4.86;94.60;97941.92;178811;1274;200888;-81
2023/01/18 13:03:15;;;;;;;33.90;21.50;;;;;;;4.87;94.90;97947.80;179109;1273;43889;-81
2023/01/18 13:07:24;;;;;;;27.70;19.90;;;;;;;4.79;95.36;97948.56;179111;1275;44190;-81
2023/01/18 13:11:36;;;;;;;36.90;23.90;;;;;;;4.73;96.25;97956.55;178977;1273;59176;-81
2023/01/18 13:15:48;;;;;;;37.30;25.80;;;;;;;4.71;96.60;97955.88;179252;1273;44109;-81
2023/01/18 13:20:11;;;;;;;35.80;24.20;;;;;;;4.78;96.45;97959.38;179157;1273;43802;-81
2023/01/18 13:24:41;;;;;;;32.40;23.60;;;;;;;4.83;96.09;97966.15;180033;1265;43777;-80
2023/01/18 13:28:45;;;;;;;41.00;24.90;;;;;;;4.81;95.52;97968.77;180603;1265;43842;-81
2023/01/18 13:32:48;;;;;;;38.20;22.60;;;;;;;4.74;95.54;97984.48;180528;1265;58642;-81
2023/01/18 13:36:52;;;;;;;241.30;125.80;;;;;;;4.64;95.84;97993.34;180391;1265;43705;-81
2023/01/18 13:41:22;;;;;;;57.10;31.40;;;;;;;4.56;97.26;98007.42;180558;1267;44004;-81
2023/01/18 13:45:28;;;;;;;32.30;23.70;;;;;;;4.53;97.81;98019.24;180440;1264;43969;-81
2023/01/18 13:49:36;;;;;;;33.40;23.70;;;;;;;4.49;97.46;98038.48;180487;1265;43979;-81
2023/01/18 13:53:50;;;;;;;34.60;23.50;;;;;;;4.37;97.98;98043.60;180657;1269;76989;-57
2023/01/18 13:58:27;;;;;;;35.50;25.10;;;;;;;4.26;98.77;98049.96;168057;1266;43631;-59
2023/01/18 14:02:40;;;;;;;38.40;28.30;;;;;;;4.20;99.41;98054.27;180912;1268;43392;-59
2023/01/18 14:06:47;;;;;;;45.10;24.60;;;;;;;4.18;99.48;98058.81;180980;1267;43709;-60
2023/01/18 14:11:03;;;;;;;45.50;29.00;;;;;;;4.26;99.62;98072.79;180909;1267;43163;-63
2023/01/18 14:15:45;;;;;;;50.60;28.60;;;;;;;4.32;99.79;98078.98;180903;1267;57637;-60
2023/01/18 14:19:48;;;;;;;47.70;33.60;;;;;;;4.39;99.63;98083.39;180890;1266;43092;-60
2023/01/18 14:24:39;;;;;;;42.00;29.50;;;;;;;4.46;99.25;98084.48;180980;1266;43502;-64
2023/01/18 14:28:48;;;;;;;47.40;31.90;;;;;;;4.53;98.87;98093.94;180042;1273;44026;-64
2023/01/18 14:33:22;;;;;;;40.90;28.70;;;;;;;4.56;98.75;98100.64;180025;1273;43138;-64
2023/01/18 14:37:34;;;;;;;45.80;30.30;;;;;;;4.64;98.67;98108.71;179746;1273;58368;-60
2023/01/18 14:41:42;;;;;;;46.30;30.50;;;;;;;4.74;98.15;98119.60;180007;1273;43537;-66
2023/01/18 14:45:52;;;;;;;51.00;33.50;;;;;;;4.80;97.60;98122.13;179895;1273;43730;-63
2023/01/18 14:49:55;;;;;;;38.80;26.40;;;;;;;4.83;97.24;98129.58;179794;1273;43717;-64
2023/01/18 14:54:01;;;;;;;36.00;25.00;;;;;;;4.85;96.79;98134.55;180023;1273;43774;-60
2023/01/18 14:58:14;;;;;;;44.00;28.30;;;;;;;4.86;96.70;98143.73;180010;1273;57825;-61
2023/01/18 15:02:23;;;;;;;43.80;30.10;;;;;;;4.87;96.53;98146.82;179912;1273;43208;-62
2023/01/18 15:06:43;;;;;;;44.70;29.50;;;;;;;4.91;97.35;98156.58;180846;1267;43537;-60
2023/01/18 15:10:47;;;;;;;48.50;32.50;;;;;;;4.97;97.55;98167.46;180990;1267;43772;-59
2023/01/18 15:14:50;;;;;;;46.20;31.40;;;;;;;5.05;98.58;98178.21;180954;1266;43510;-60
2023/01/18 15:19:01;;;;;;;43.40;30.90;;;;;;;5.13;97.74;98180.27;180931;1267;59142;-61
2023/01/18 15:23:04;;;;;;;45.50;29.20;;;;;;;5.11;95.73;98186.40;180911;1267;43247;-64
2023/01/18 15:27:14;;;;;;;46.90;28.60;;;;;;;5.04;95.35;98193.75;180919;1267;43824;-64
2023/01/18 15:31:17;;;;;;;44.50;28.60;;;;;;;5.04;96.11;98198.67;180887;1267;43127;-65
2023/01/18 15:35:24;;;;;;;43.10;27.40;;;;;;;5.06;96.20;98207.22;180953;1267;43500;-62
2023/01/18 15:39:27;;;;;;;43.10;28.90;;;;;;;5.07;95.26;98211.21;180888;1266;58324;-62
2023/01/18 15:43:32;;;;;;;38.20;28.10;;;;;;;5.07;95.16;98212.39;180962;1267;43979;-62
2023/01/18 15:47:38;;;;;;;49.70;29.30;;;;;;;5.10;95.07;98223.43;180989;1266;43910;-63
2023/01/18 15:51:51;;;;;;;43.30;27.50;;;;;;;5.07;95.01;98223.48;180954;1267;43841;-63
2023/01/18 15:56:47;;;;;;;40.20;25.10;;;;;;;5.04;94.64;98233.43;180944;1267;43330;-66
2023/01/18 16:01:15;;;;;;;43.00;26.30;;;;;;;4.96;94.87;98239.55;180941;1267;57950;-62
2023/01/18 16:05:22;;;;;;;44.70;29.70;;;;;;;4.90;95.22;98247.19;180855;1266;43758;-62
2023/01/18 16:09:25;;;;;;;49.70;30.50;;;;;;;4.83;95.63;98250.23;180929;1267;43075;-63
2023/01/18 16:13:37;;;;;;;48.30;27.70;;;;;;;4.77;96.35;98244.51;180934;1267;43522;-61
2023/01/18 16:17:42;;;;;;;49.60;29.80;;;;;;;4.80;96.97;98246.50;180816;1267;43737;-62
2023/01/18 16:21:50;;;;;;;50.60;28.90;;;;;;;4.84;96.70;98254.03;180879;1266;58278;-62
2023/01/18 16:26:02;;;;;;;45.20;29.10;;;;;;;4.89;96.62;98264.81;180898;1267;43431;-63
2023/01/18 16:30:18;;;;;;;53.10;29.40;;;;;;;4.88;96.47;98271.44;180858;1266;43103;-64
2023/01/18 16:34:24;;;;;;;59.40;35.70;;;;;;;4.82;96.55;98268.07;180998;1267;43343;-64
2023/01/18 16:38:27;;;;;;;47.40;29.40;;;;;;;4.77;97.04;98266.23;180882;1267;43234;-61
2023/01/18 16:42:34;;;;;;;54.00;31.90;;;;;;;4.67;97.16;98279.04;180957;1267;59577;-61
2023/01/18 16:46:40;;;;;;;57.60;38.10;;;;;;;4.57;98.10;98285.94;180923;1267;44211;-61
2023/01/18 16:50:44;;;;;;;47.00;29.30;;;;;;;4.49;98.51;98292.04;180926;1266;43641;-61
2023/01/18 16:54:46;;;;;;;52.70;32.00;;;;;;;4.46;99.28;98303.05;180952;1267;43916;-62
2023/01/18 16:58:53;;;;;;;61.70;33.60;;;;;;;4.51;99.89;98308.17;180947;1267;43114;-65
2023/01/18 17:02:56;;;;;;;55.80;32.70;;;;;;;4.53;99.18;98322.06;180846;1267;60145;-61
2023/01/18 17:06:59;;;;;;;46.40;29.10;;;;;;;4.47;98.84;98328.95;180944;1267;44225;-61
2023/01/18 17:11:03;;;;;;;52.50;33.50;;;;;;;4.32;98.75;98337.92;180977;1267;43015;-62
2023/01/18 17:15:06;;;;;;;59.50;36.40;;;;;;;4.19;99.41;98346.64;180905;1266;43894;-63
2023/01/18 17:19:13;;;;;;;54.60;33.70;;;;;;;4.19;99.98;98346.74;180928;1267;43069;-61
2023/01/18 17:23:21;;;;;;;55.20;31.70;;;;;;;3.99;99.84;98349.52;180926;1266;58333;-63
2023/01/18 17:27:24;;;;;;;60.20;34.80;;;;;;;3.65;100.00;98361.52;180898;1267;43156;-61
2023/01/18 17:31:27;;;;;;;61.90;35.70;;;;;;;3.47;100.00;98366.62;180923;1267;43924;-62
2023/01/18 17:35:30;;;;;;;57.60;32.50;;;;;;;3.32;100.00;98380.14;180938;1266;43146;-62
2023/01/18 17:39:33;;;;;;;65.50;37.80;;;;;;;3.29;100.00;98388.66;180925;1267;44279;-63
2023/01/18 17:43:52;;;;;;;99.70;50.70;;;;;;;3.35;100.00;98397.99;180909;1267;59122;-66
2023/01/18 17:47:55;;;;;;;68.30;41.10;;;;;;;3.45;100.00;98398.90;180891;1267;43429;-63
2023/01/18 17:51:58;;;;;;;79.60;47.20;;;;;;;3.61;100.00;98401.59;180947;1267;43621;-63
2023/01/18 17:56:08;;;;;;;75.20;45.50;;;;;;;3.80;100.00;98402.86;180939;1267;43167;-63
2023/01/18 18:00:13;;;;;;;87.60;49.80;;;;;;;3.98;100.00;98401.55;180914;1267;43098;-65
2023/01/18 18:04:32;;;;;;;86.00;45.60;;;;;;;4.11;100.00;98409.89;180940;1267;58206;-65
2023/01/18 18:08:35;;;;;;;92.90;48.40;;;;;;;4.20;100.00;98414.43;180909;1266;43071;-66
2023/01/18 18:12:38;;;;;;;90.50;52.50;;;;;;;4.17;100.00;98423.09;180878;1267;43049;-64
2023/01/18 18:16:43;;;;;;;81.80;45.60;;;;;;;4.18;100.00;98434.29;180952;1267;43751;-64
2023/01/18 18:20:46;;;;;;;125.80;65.80;;;;;;;4.14;100.00;98438.77;180938;1267;43839;-63
2023/01/18 18:24:50;;;;;;;81.10;41.00;;;;;;;4.06;100.00;98438.76;180930;1267;58346;-62
2023/01/18 18:28:53;;;;;;;66.20;43.10;;;;;;;3.97;100.00;98440.89;180845;1267;43676;-65
2023/01/18 18:32:56;;;;;;;72.50;42.80;;;;;;;3.96;100.00;98441.67;180984;1267;43379;-63
2023/01/18 18:37:00;;;;;;;86.90;48.60;;;;;;;3.93;100.00;98444.19;180897;1267;43457;-62
2023/01/18 18:41:06;;;;;;;87.30;54.80;;;;;;;4.00;100.00;98449.43;180912;1267;43060;-63
2023/01/18 18:45:09;;;;;;;83.60;50.00;;;;;;;4.11;100.00;98455.33;180909;1266;59067;-66
2023/01/18 18:49:14;;;;;;;89.40;43.90;;;;;;;4.18;100.00;98463.59;180949;1266;43762;-62
2023/01/18 18:53:17;;;;;;;94.40;42.00;;;;;;;4.15;100.00;98469.41;180927;1266;43179;-62
2023/01/18 18:57:27;;;;;;;77.80;41.50;;;;;;;4.11;100.00;98474.85;180950;1266;43210;-62
2023/01/18 19:01:30;;;;;;;74.80;39.10;;;;;;;4.10;100.00;98484.34;180923;1267;43146;-62
2023/01/18 19:05:34;;;;;;;70.30;40.20;;;;;;;4.08;100.00;98492.27;180891;1267;59296;-66
2023/01/18 19:09:37;;;;;;;92.90;49.00;;;;;;;4.02;100.00;98497.70;180881;1266;43624;-66
2023/01/18 19:13:41;;;;;;;94.40;44.50;;;;;;;3.96;100.00;98499.38;180927;1266;43114;-65
2023/01/18 19:17:49;;;;;;;67.80;39.20;;;;;;;3.95;100.00;98503.70;180860;1267;43209;-62
2023/01/18 19:21:52;;;;;;;62.40;39.70;;;;;;;3.92;100.00;98517.63;180899;1267;43140;-62
2023/01/18 19:26:10;;;;;;;76.20;45.10;;;;;;;3.91;100.00;98523.09;180906;1268;58644;-65
2023/01/18 19:30:16;;;;;;;80.10;45.30;;;;;;;3.94;100.00;98525.02;180910;1267;43556;-66
2023/01/18 19:34:20;;;;;;;71.70;39.90;;;;;;;3.99;100.00;98529.85;180897;1267;43244;-63
2023/01/18 19:38:24;;;;;;;75.10;45.40;;;;;;;3.98;100.00;98540.24;180864;1266;43573;-63
2023/01/18 19:42:28;;;;;;;82.40;44.90;;;;;;;3.99;100.00;98546.84;180921;1266;43190;-61
2023/01/18 19:46:32;;;;;;;99.30;46.10;;;;;;;4.00;100.00;98554.13;180924;1267;59244;-63
2023/01/18 19:50:36;;;;;;;82.00;48.60;;;;;;;4.00;100.00;98557.79;180896;1267;43844;-65
2023/01/18 19:54:40;;;;;;;82.70;53.50;;;;;;;4.00;100.00;98566.98;180916;1267;43152;-63
2023/01/18 19:58:43;;;;;;;92.30;58.50;;;;;;;3.97;100.00;98581.53;180940;1266;44005;-62
2023/01/18 20:02:46;;;;;;;101.70;58.00;;;;;;;3.94;100.00;98589.36;180847;1267;43070;-63
2023/01/18 20:06:49;;;;;;;76.90;50.30;;;;;;;3.93;100.00;98589.49;180902;1267;57910;-64
2023/01/18 20:10:52;;;;;;;87.60;47.20;;;;;;;3.91;100.00;98595.54;180920;1267;43740;-64
2023/01/18 20:14:55;;;;;;;104.60;51.60;;;;;;;3.95;100.00;98602.80;180952;1266;44735;-64
2023/01/18 20:18:57;;;;;;;83.30;48.40;;;;;;;3.98;100.00;98605.65;180960;1266;43525;-64